Minot, ND

11:01 PM CST on February 11, 2016 (GMT -0600)
Edgeview Estates | | Change Station
CLOSE
Current Station
Personal Weather Station
Location: Minot, ND
Elevation: 1752 ft
Nearby Weather Stations

Elev 1752 ft 48.21 °N, 101.33 °W | Updated 12 seconds ago

Overcast
Overcast
16.3 °F
Feels Like 16 °F
N
2.0
Wind Variable Wind from NNW
Gusts 6.0 mph

Today
High -- | Low -- °F
--% Chance of Precip.
Yesterday
High -- | Low -- °F
Precip. -- in
Pressure 30.40 in
Visibility 10.0 miles
Clouds Overcast 2100 ft
Windchill 16 °F
Dew Point 11 °F
Humidity 80%
Rainfall 0.00 in
Snow Depth Not available.
7:59 AM 6:00 PM
Waxing Crescent, 17% visible
METAR KMOT 120454Z AUTO 34008KT 10SM OVC021 M07/M12 A3030 RMK AO2 SLP295 T10721122
Pressure 30.40 in
Visibility 10.0 miles
Clouds Overcast 2100 ft
Windchill 16 °F
Dew Point 11 °F
Humidity 80%
Rainfall 0.00 in
Snow Depth Not available.
7:59 AM 6:00 PM
Waxing Crescent, 17% visible
METAR KMOT 120454Z AUTO 34008KT 10SM OVC021 M07/M12 A3030 RMK AO2 SLP295 T10721122

10-Day Weather Forecast

Almanac

Astronomy

Feb. 11, 2016 Rise Set
Actual Time
Civil Twilight
Nautical Twilight
Astronomical Twilight
Moon
Length of Visible Light
Length of Day
Tomorrow will be .
, % of the Moon is Illuminated

Today's Extremes

State Highs State Lows

Community

WunderPhotos

Upload Photos

1,892,265 photos uploaded!

WunderBlog® & News

Nearby

Air Quality

  Air Quality AQ Index Pollutant
Not available.

Snow Depth

Station Depth Elevation

Earthquake Activity

City Distance Mag. Time & Date
Minimum magnitude displayed is 2.5.

Coastal Water Temperatures

Place Temperature

Stations

Nearby Weather Stations

Station Location Temp. Windchill Dew Point Humidity Wind Precip. Elev Updated Type
                   

Watches & Warnings

There are currently no watches in effect.